sensor_id;sensor_type;location;lat;lon;timestamp;P1;durP1;ratioP1;P2;durP2;ratioP2
41984;SDS011;28319;48.116;10.818;2023-05-14T00:04:10;3.97;;;3.10;;
41984;SDS011;28319;48.116;10.818;2023-05-14T00:09:13;3.37;;;3.07;;
41984;SDS011;28319;48.116;10.818;2023-05-14T00:14:16;4.20;;;3.80;;
41984;SDS011;28319;48.116;10.818;2023-05-14T00:19:18;6.33;;;4.10;;
41984;SDS011;28319;48.116;10.818;2023-05-14T00:24:21;4.87;;;4.03;;
41984;SDS011;28319;48.116;10.818;2023-05-14T00:29:23;4.40;;;4.00;;
41984;SDS011;28319;48.116;10.818;2023-05-14T00:34:25;4.03;;;3.60;;
41984;SDS011;28319;48.116;10.818;2023-05-14T00:39:29;4.30;;;3.90;;
41984;SDS011;28319;48.116;10.818;2023-05-14T00:44:31;4.80;;;4.40;;
41984;SDS011;28319;48.116;10.818;2023-05-14T00:49:33;5.33;;;4.50;;
41984;SDS011;28319;48.116;10.818;2023-05-14T00:54:37;5.93;;;5.30;;
41984;SDS011;28319;48.116;10.818;2023-05-14T00:59:39;4.87;;;4.37;;
41984;SDS011;28319;48.116;10.818;2023-05-14T01:04:41;5.20;;;4.70;;
41984;SDS011;28319;48.116;10.818;2023-05-14T01:09:46;6.20;;;5.60;;
41984;SDS011;28319;48.116;10.818;2023-05-14T01:14:56;7.07;;;4.60;;
41984;SDS011;28319;48.116;10.818;2023-05-14T01:20:02;9.83;;;7.00;;
41984;SDS011;28319;48.116;10.818;2023-05-14T01:25:07;7.40;;;6.40;;
41984;SDS011;28319;48.116;10.818;2023-05-14T01:30:12;9.33;;;7.77;;
41984;SDS011;28319;48.116;10.818;2023-05-14T01:35:18;8.80;;;7.10;;
41984;SDS011;28319;48.116;10.818;2023-05-14T01:40:24;8.67;;;7.40;;
41984;SDS011;28319;48.116;10.818;2023-05-14T01:45:26;9.77;;;7.50;;
41984;SDS011;28319;48.116;10.818;2023-05-14T01:50:28;15.53;;;8.50;;
41984;SDS011;28319;48.116;10.818;2023-05-14T01:55:31;10.63;;;8.17;;
41984;SDS011;28319;48.116;10.818;2023-05-14T02:00:33;11.47;;;8.07;;
41984;SDS011;28319;48.116;10.818;2023-05-14T02:05:35;10.97;;;8.17;;
41984;SDS011;28319;48.116;10.818;2023-05-14T02:10:39;12.73;;;9.13;;
41984;SDS011;28319;48.116;10.818;2023-05-14T02:15:41;9.10;;;7.67;;
41984;SDS011;28319;48.116;10.818;2023-05-14T02:20:43;9.47;;;7.67;;
41984;SDS011;28319;48.116;10.818;2023-05-14T02:25:46;10.27;;;7.57;;
41984;SDS011;28319;48.116;10.818;2023-05-14T02:30:48;10.77;;;8.27;;
41984;SDS011;28319;48.116;10.818;2023-05-14T02:35:50;11.93;;;8.43;;
41984;SDS011;28319;48.116;10.818;2023-05-14T02:40:53;12.27;;;8.33;;
41984;SDS011;28319;48.116;10.818;2023-05-14T02:45:55;11.67;;;7.80;;
41984;SDS011;28319;48.116;10.818;2023-05-14T02:50:57;9.87;;;8.50;;
41984;SDS011;28319;48.116;10.818;2023-05-14T02:56:01;10.33;;;8.47;;
41984;SDS011;28319;48.116;10.818;2023-05-14T03:01:03;13.50;;;8.50;;
41984;SDS011;28319;48.116;10.818;2023-05-14T03:06:05;9.97;;;8.33;;
41984;SDS011;28319;48.116;10.818;2023-05-14T03:11:09;12.53;;;8.63;;
41984;SDS011;28319;48.116;10.818;2023-05-14T03:16:11;10.43;;;8.10;;
41984;SDS011;28319;48.116;10.818;2023-05-14T03:21:13;9.93;;;8.47;;
41984;SDS011;28319;48.116;10.818;2023-05-14T03:26:17;8.50;;;6.90;;
41984;SDS011;28319;48.116;10.818;2023-05-14T03:31:19;9.93;;;8.60;;
41984;SDS011;28319;48.116;10.818;2023-05-14T03:36:21;11.77;;;8.83;;
41984;SDS011;28319;48.116;10.818;2023-05-14T03:41:24;12.37;;;9.30;;
41984;SDS011;28319;48.116;10.818;2023-05-14T03:46:26;10.60;;;9.03;;
41984;SDS011;28319;48.116;10.818;2023-05-14T03:51:28;10.70;;;8.90;;
41984;SDS011;28319;48.116;10.818;2023-05-14T03:56:33;10.50;;;9.23;;
41984;SDS011;28319;48.116;10.818;2023-05-14T04:01:35;12.97;;;9.17;;
41984;SDS011;28319;48.116;10.818;2023-05-14T04:06:37;12.33;;;9.40;;
41984;SDS011;28319;48.116;10.818;2023-05-14T04:11:40;12.13;;;8.90;;
41984;SDS011;28319;48.116;10.818;2023-05-14T04:16:42;12.13;;;9.50;;
41984;SDS011;28319;48.116;10.818;2023-05-14T04:21:44;11.60;;;8.90;;
41984;SDS011;28319;48.116;10.818;2023-05-14T04:26:47;13.87;;;9.80;;
41984;SDS011;28319;48.116;10.818;2023-05-14T04:31:50;15.47;;;9.53;;
41984;SDS011;28319;48.116;10.818;2023-05-14T04:36:51;11.43;;;8.80;;
41984;SDS011;28319;48.116;10.818;2023-05-14T04:41:55;12.23;;;9.60;;
41984;SDS011;28319;48.116;10.818;2023-05-14T04:46:57;14.67;;;9.57;;
41984;SDS011;28319;48.116;10.818;2023-05-14T04:51:59;14.60;;;9.17;;
41984;SDS011;28319;48.116;10.818;2023-05-14T04:57:03;11.27;;;9.33;;
41984;SDS011;28319;48.116;10.818;2023-05-14T05:02:05;12.70;;;9.53;;
41984;SDS011;28319;48.116;10.818;2023-05-14T05:07:07;13.17;;;9.17;;
41984;SDS011;28319;48.116;10.818;2023-05-14T05:12:10;12.90;;;9.13;;
41984;SDS011;28319;48.116;10.818;2023-05-14T05:17:13;14.40;;;10.13;;
41984;SDS011;28319;48.116;10.818;2023-05-14T05:22:15;13.13;;;9.10;;
41984;SDS011;28319;48.116;10.818;2023-05-14T05:27:18;10.60;;;8.40;;
41984;SDS011;28319;48.116;10.818;2023-05-14T05:32:21;13.03;;;9.23;;
41984;SDS011;28319;48.116;10.818;2023-05-14T05:37:23;11.70;;;8.70;;
41984;SDS011;28319;48.116;10.818;2023-05-14T05:42:27;8.23;;;7.17;;
41984;SDS011;28319;48.116;10.818;2023-05-14T05:47:29;12.03;;;8.43;;
41984;SDS011;28319;48.116;10.818;2023-05-14T05:52:31;12.53;;;8.63;;
41984;SDS011;28319;48.116;10.818;2023-05-14T05:57:34;9.00;;;7.47;;
41984;SDS011;28319;48.116;10.818;2023-05-14T06:02:36;9.57;;;7.33;;
41984;SDS011;28319;48.116;10.818;2023-05-14T06:07:38;12.20;;;8.63;;
41984;SDS011;28319;48.116;10.818;2023-05-14T06:12:41;11.20;;;9.23;;
41984;SDS011;28319;48.116;10.818;2023-05-14T06:17:43;9.20;;;7.13;;
41984;SDS011;28319;48.116;10.818;2023-05-14T06:22:45;9.20;;;7.27;;
41984;SDS011;28319;48.116;10.818;2023-05-14T06:27:48;9.97;;;7.80;;
41984;SDS011;28319;48.116;10.818;2023-05-14T06:32:50;11.77;;;7.67;;
41984;SDS011;28319;48.116;10.818;2023-05-14T06:37:52;10.50;;;8.00;;
41984;SDS011;28319;48.116;10.818;2023-05-14T06:42:56;9.77;;;7.90;;
41984;SDS011;28319;48.116;10.818;2023-05-14T06:47:58;9.50;;;7.50;;
41984;SDS011;28319;48.116;10.818;2023-05-14T06:53:00;13.60;;;7.67;;
41984;SDS011;28319;48.116;10.818;2023-05-14T06:58:04;11.77;;;8.50;;
41984;SDS011;28319;48.116;10.818;2023-05-14T07:03:07;10.80;;;7.90;;
41984;SDS011;28319;48.116;10.818;2023-05-14T07:08:09;9.73;;;7.30;;
41984;SDS011;28319;48.116;10.818;2023-05-14T07:13:12;10.40;;;7.60;;
41984;SDS011;28319;48.116;10.818;2023-05-14T07:18:14;9.97;;;7.03;;
41984;SDS011;28319;48.116;10.818;2023-05-14T07:23:16;8.67;;;7.17;;
41984;SDS011;28319;48.116;10.818;2023-05-14T07:28:20;9.27;;;7.10;;
41984;SDS011;28319;48.116;10.818;2023-05-14T07:33:22;13.20;;;8.30;;
41984;SDS011;28319;48.116;10.818;2023-05-14T07:38:24;13.40;;;8.40;;
41984;SDS011;28319;48.116;10.818;2023-05-14T07:43:28;11.27;;;7.80;;
41984;SDS011;28319;48.116;10.818;2023-05-14T07:48:30;10.97;;;7.63;;
41984;SDS011;28319;48.116;10.818;2023-05-14T07:53:32;13.60;;;8.33;;
41984;SDS011;28319;48.116;10.818;2023-05-14T07:58:35;10.83;;;7.13;;
41984;SDS011;28319;48.116;10.818;2023-05-14T08:03:37;9.70;;;7.33;;
41984;SDS011;28319;48.116;10.818;2023-05-14T08:08:39;11.13;;;7.20;;
41984;SDS011;28319;48.116;10.818;2023-05-14T08:13:43;10.90;;;7.77;;
41984;SDS011;28319;48.116;10.818;2023-05-14T08:18:45;8.40;;;6.73;;
41984;SDS011;28319;48.116;10.818;2023-05-14T08:23:47;11.07;;;7.10;;
41984;SDS011;28319;48.116;10.818;2023-05-14T08:28:51;8.60;;;6.87;;
41984;SDS011;28319;48.116;10.818;2023-05-14T08:33:53;9.97;;;7.13;;
41984;SDS011;28319;48.116;10.818;2023-05-14T08:38:55;8.33;;;6.63;;
41984;SDS011;28319;48.116;10.818;2023-05-14T08:44:01;9.10;;;7.10;;
41984;SDS011;28319;48.116;10.818;2023-05-14T08:49:12;8.23;;;6.23;;
41984;SDS011;28319;48.116;10.818;2023-05-14T08:54:19;8.87;;;6.60;;
41984;SDS011;28319;48.116;10.818;2023-05-14T08:59:25;9.70;;;6.13;;
41984;SDS011;28319;48.116;10.818;2023-05-14T09:04:27;7.00;;;5.93;;
41984;SDS011;28319;48.116;10.818;2023-05-14T09:09:29;10.97;;;7.27;;
41984;SDS011;28319;48.116;10.818;2023-05-14T09:14:32;8.17;;;6.53;;
41984;SDS011;28319;48.116;10.818;2023-05-14T09:19:34;7.50;;;6.53;;
41984;SDS011;28319;48.116;10.818;2023-05-14T09:24:38;7.77;;;5.87;;
41984;SDS011;28319;48.116;10.818;2023-05-14T09:29:42;7.67;;;5.20;;
41984;SDS011;28319;48.116;10.818;2023-05-14T09:34:44;7.70;;;6.00;;
41984;SDS011;28319;48.116;10.818;2023-05-14T09:39:46;11.73;;;7.30;;
41984;SDS011;28319;48.116;10.818;2023-05-14T09:44:49;12.97;;;8.13;;
41984;SDS011;28319;48.116;10.818;2023-05-14T09:49:53;11.77;;;7.67;;
41984;SDS011;28319;48.116;10.818;2023-05-14T09:54:55;10.60;;;7.77;;
41984;SDS011;28319;48.116;10.818;2023-05-14T09:59:59;11.23;;;7.87;;
41984;SDS011;28319;48.116;10.818;2023-05-14T10:05:02;10.03;;;7.53;;
41984;SDS011;28319;48.116;10.818;2023-05-14T10:10:06;11.33;;;8.23;;
41984;SDS011;28319;48.116;10.818;2023-05-14T10:15:16;13.17;;;9.30;;
41984;SDS011;28319;48.116;10.818;2023-05-14T10:20:20;10.50;;;7.87;;
41984;SDS011;28319;48.116;10.818;2023-05-14T10:25:23;11.70;;;8.30;;
41984;SDS011;28319;48.116;10.818;2023-05-14T10:30:27;9.83;;;8.13;;
41984;SDS011;28319;48.116;10.818;2023-05-14T10:35:29;7.70;;;6.40;;
41984;SDS011;28319;48.116;10.818;2023-05-14T10:40:46;7.83;;;6.70;;
41984;SDS011;28319;48.116;10.818;2023-05-14T10:45:49;7.57;;;6.70;;
41984;SDS011;28319;48.116;10.818;2023-05-14T10:50:52;8.07;;;6.30;;
41984;SDS011;28319;48.116;10.818;2023-05-14T10:55:55;6.27;;;5.63;;
41984;SDS011;28319;48.116;10.818;2023-05-14T11:00:59;6.70;;;5.83;;
41984;SDS011;28319;48.116;10.818;2023-05-14T11:06:02;8.27;;;7.10;;
41984;SDS011;28319;48.116;10.818;2023-05-14T11:11:04;7.83;;;7.00;;
41984;SDS011;28319;48.116;10.818;2023-05-14T11:16:08;7.87;;;7.07;;
41984;SDS011;28319;48.116;10.818;2023-05-14T11:21:10;7.33;;;6.53;;
41984;SDS011;28319;48.116;10.818;2023-05-14T11:26:12;9.70;;;6.50;;
41984;SDS011;28319;48.116;10.818;2023-05-14T11:31:16;6.97;;;5.87;;
41984;SDS011;28319;48.116;10.818;2023-05-14T11:36:18;6.73;;;6.07;;
41984;SDS011;28319;48.116;10.818;2023-05-14T11:41:20;6.93;;;6.33;;
41984;SDS011;28319;48.116;10.818;2023-05-14T11:46:23;6.77;;;6.07;;
41984;SDS011;28319;48.116;10.818;2023-05-14T11:51:27;6.53;;;5.83;;
41984;SDS011;28319;48.116;10.818;2023-05-14T11:56:29;6.87;;;5.70;;
41984;SDS011;28319;48.116;10.818;2023-05-14T12:01:35;8.13;;;7.10;;
41984;SDS011;28319;48.116;10.818;2023-05-14T12:06:37;6.77;;;6.07;;
41984;SDS011;28319;48.116;10.818;2023-05-14T12:11:40;6.67;;;6.00;;
41984;SDS011;28319;48.116;10.818;2023-05-14T12:16:43;6.30;;;5.70;;
41984;SDS011;28319;48.116;10.818;2023-05-14T12:21:46;6.37;;;5.77;;
41984;SDS011;28319;48.116;10.818;2023-05-14T12:26:50;6.30;;;5.70;;
41984;SDS011;28319;48.116;10.818;2023-05-14T12:31:56;6.27;;;5.27;;
41984;SDS011;28319;48.116;10.818;2023-05-14T12:36:58;6.07;;;4.90;;
41984;SDS011;28319;48.116;10.818;2023-05-14T12:42:00;5.63;;;5.03;;
41984;SDS011;28319;48.116;10.818;2023-05-14T12:47:04;6.40;;;5.30;;
41984;SDS011;28319;48.116;10.818;2023-05-14T12:52:06;6.70;;;6.00;;
41984;SDS011;28319;48.116;10.818;2023-05-14T12:57:08;5.63;;;5.13;;
41984;SDS011;28319;48.116;10.818;2023-05-14T13:02:12;5.53;;;4.97;;
41984;SDS011;28319;48.116;10.818;2023-05-14T13:07:14;4.65;;;4.25;;
41984;SDS011;28319;48.116;10.818;2023-05-14T13:12:16;4.30;;;3.95;;
41984;SDS011;28319;48.116;10.818;2023-05-14T13:17:19;4.32;;;3.92;;
41984;SDS011;28319;48.116;10.818;2023-05-14T13:22:21;3.65;;;3.35;;
41984;SDS011;28319;48.116;10.818;2023-05-14T13:27:23;3.60;;;3.30;;
41984;SDS011;28319;48.116;10.818;2023-05-14T13:32:27;4.00;;;3.65;;
41984;SDS011;28319;48.116;10.818;2023-05-14T13:37:29;4.07;;;3.72;;
41984;SDS011;28319;48.116;10.818;2023-05-14T13:42:31;5.53;;;4.45;;
41984;SDS011;28319;48.116;10.818;2023-05-14T13:47:34;3.60;;;3.40;;
41984;SDS011;28319;48.116;10.818;2023-05-14T13:52:36;3.65;;;3.08;;
41984;SDS011;28319;48.116;10.818;2023-05-14T13:57:38;4.10;;;2.95;;
41984;SDS011;28319;48.116;10.818;2023-05-14T14:02:43;2.90;;;2.70;;
41984;SDS011;28319;48.116;10.818;2023-05-14T14:07:45;2.83;;;2.63;;
41984;SDS011;28319;48.116;10.818;2023-05-14T14:12:47;2.83;;;2.63;;
41984;SDS011;28319;48.116;10.818;2023-05-14T14:17:51;3.00;;;2.80;;
41984;SDS011;28319;48.116;10.818;2023-05-14T14:22:54;2.80;;;2.60;;
41984;SDS011;28319;48.116;10.818;2023-05-14T14:27:56;5.22;;;2.80;;
41984;SDS011;28319;48.116;10.818;2023-05-14T14:32:59;2.55;;;2.40;;
41984;SDS011;28319;48.116;10.818;2023-05-14T14:38:02;2.42;;;2.30;;
41984;SDS011;28319;48.116;10.818;2023-05-14T14:43:04;3.03;;;2.83;;
41984;SDS011;28319;48.116;10.818;2023-05-14T14:48:23;3.88;;;2.85;;
41984;SDS011;28319;48.116;10.818;2023-05-14T14:53:26;2.83;;;2.63;;
41984;SDS011;28319;48.116;10.818;2023-05-14T14:58:28;2.65;;;2.47;;
41984;SDS011;28319;48.116;10.818;2023-05-14T15:03:31;3.17;;;2.20;;
41984;SDS011;28319;48.116;10.818;2023-05-14T15:08:33;2.40;;;2.30;;
41984;SDS011;28319;48.116;10.818;2023-05-14T15:13:35;2.28;;;2.08;;
41984;SDS011;28319;48.116;10.818;2023-05-14T15:18:40;1.77;;;1.67;;
41984;SDS011;28319;48.116;10.818;2023-05-14T15:23:42;2.33;;;2.10;;
41984;SDS011;28319;48.116;10.818;2023-05-14T15:28:44;1.88;;;1.77;;
41984;SDS011;28319;48.116;10.818;2023-05-14T15:33:47;2.13;;;1.92;;
41984;SDS011;28319;48.116;10.818;2023-05-14T15:38:49;2.45;;;1.73;;
41984;SDS011;28319;48.116;10.818;2023-05-14T15:43:51;1.85;;;1.70;;
41984;SDS011;28319;48.116;10.818;2023-05-14T15:48:55;1.80;;;1.70;;
41984;SDS011;28319;48.116;10.818;2023-05-14T15:53:58;2.22;;;2.03;;
41984;SDS011;28319;48.116;10.818;2023-05-14T15:59:00;3.30;;;2.60;;
41984;SDS011;28319;48.116;10.818;2023-05-14T16:04:03;2.08;;;1.98;;
41984;SDS011;28319;48.116;10.818;2023-05-14T16:09:05;2.15;;;2.05;;
41984;SDS011;28319;48.116;10.818;2023-05-14T16:14:08;2.33;;;2.13;;
41984;SDS011;28319;48.116;10.818;2023-05-14T16:19:12;2.20;;;2.10;;
41984;SDS011;28319;48.116;10.818;2023-05-14T16:24:14;1.95;;;1.85;;
41984;SDS011;28319;48.116;10.818;2023-05-14T16:29:18;1.95;;;1.85;;
41984;SDS011;28319;48.116;10.818;2023-05-14T16:34:22;2.20;;;2.10;;
41984;SDS011;28319;48.116;10.818;2023-05-14T16:39:24;2.70;;;2.38;;
41984;SDS011;28319;48.116;10.818;2023-05-14T16:44:26;2.22;;;2.13;;
41984;SDS011;28319;48.116;10.818;2023-05-14T16:49:29;2.63;;;2.42;;
41984;SDS011;28319;48.116;10.818;2023-05-14T16:54:31;4.13;;;2.17;;
41984;SDS011;28319;48.116;10.818;2023-05-14T16:59:33;2.92;;;2.08;;
41984;SDS011;28319;48.116;10.818;2023-05-14T17:04:37;1.90;;;1.80;;
41984;SDS011;28319;48.116;10.818;2023-05-14T17:09:41;4.93;;;1.70;;
41984;SDS011;28319;48.116;10.818;2023-05-14T17:14:43;1.65;;;1.55;;
41984;SDS011;28319;48.116;10.818;2023-05-14T17:19:46;2.88;;;2.10;;
41984;SDS011;28319;48.116;10.818;2023-05-14T17:24:48;2.65;;;1.98;;
41984;SDS011;28319;48.116;10.818;2023-05-14T17:29:50;2.00;;;1.90;;
41984;SDS011;28319;48.116;10.818;2023-05-14T17:34:54;2.00;;;1.90;;
41984;SDS011;28319;48.116;10.818;2023-05-14T17:39:56;2.27;;;2.17;;
41984;SDS011;28319;48.116;10.818;2023-05-14T17:44:58;4.80;;;2.47;;
41984;SDS011;28319;48.116;10.818;2023-05-14T17:50:02;2.70;;;2.50;;
41984;SDS011;28319;48.116;10.818;2023-05-14T17:55:04;2.30;;;2.17;;
41984;SDS011;28319;48.116;10.818;2023-05-14T18:00:07;3.40;;;2.10;;
41984;SDS011;28319;48.116;10.818;2023-05-14T18:05:11;2.53;;;2.33;;
41984;SDS011;28319;48.116;10.818;2023-05-14T18:10:13;2.27;;;2.17;;
41984;SDS011;28319;48.116;10.818;2023-05-14T18:15:15;2.60;;;2.40;;
41984;SDS011;28319;48.116;10.818;2023-05-14T18:20:20;4.93;;;2.00;;
41984;SDS011;28319;48.116;10.818;2023-05-14T18:25:22;2.10;;;2.00;;
41984;SDS011;28319;48.116;10.818;2023-05-14T18:30:25;1.73;;;1.63;;
41984;SDS011;28319;48.116;10.818;2023-05-14T18:35:28;1.90;;;1.80;;
41984;SDS011;28319;48.116;10.818;2023-05-14T18:40:30;1.93;;;1.73;;
41984;SDS011;28319;48.116;10.818;2023-05-14T18:45:32;1.70;;;1.60;;
41984;SDS011;28319;48.116;10.818;2023-05-14T18:50:37;1.80;;;1.70;;
41984;SDS011;28319;48.116;10.818;2023-05-14T18:55:39;1.53;;;1.43;;
41984;SDS011;28319;48.116;10.818;2023-05-14T19:00:41;1.70;;;1.60;;
41984;SDS011;28319;48.116;10.818;2023-05-14T19:05:45;1.83;;;1.70;;
41984;SDS011;28319;48.116;10.818;2023-05-14T19:10:49;1.70;;;1.60;;
41984;SDS011;28319;48.116;10.818;2023-05-14T19:15:52;2.00;;;1.90;;
41984;SDS011;28319;48.116;10.818;2023-05-14T19:20:55;2.47;;;2.27;;
41984;SDS011;28319;48.116;10.818;2023-05-14T19:25:58;2.33;;;2.13;;
41984;SDS011;28319;48.116;10.818;2023-05-14T19:31:00;2.10;;;2.00;;
41984;SDS011;28319;48.116;10.818;2023-05-14T19:36:04;2.40;;;2.30;;
41984;SDS011;28319;48.116;10.818;2023-05-14T19:41:06;2.23;;;2.07;;
41984;SDS011;28319;48.116;10.818;2023-05-14T19:46:08;2.10;;;1.93;;
41984;SDS011;28319;48.116;10.818;2023-05-14T19:51:12;2.10;;;2.00;;
41984;SDS011;28319;48.116;10.818;2023-05-14T19:56:14;2.80;;;2.40;;
41984;SDS011;28319;48.116;10.818;2023-05-14T20:01:16;3.20;;;2.90;;
41984;SDS011;28319;48.116;10.818;2023-05-14T20:06:21;2.70;;;2.50;;
41984;SDS011;28319;48.116;10.818;2023-05-14T20:11:23;2.10;;;2.00;;
41984;SDS011;28319;48.116;10.818;2023-05-14T20:16:25;2.30;;;2.20;;
41984;SDS011;28319;48.116;10.818;2023-05-14T20:21:29;2.37;;;2.20;;
41984;SDS011;28319;48.116;10.818;2023-05-14T20:26:31;2.93;;;2.70;;
41984;SDS011;28319;48.116;10.818;2023-05-14T20:31:32;2.50;;;2.30;;
41984;SDS011;28319;48.116;10.818;2023-05-14T20:36:36;2.97;;;2.77;;
41984;SDS011;28319;48.116;10.818;2023-05-14T20:41:38;2.63;;;2.43;;
41984;SDS011;28319;48.116;10.818;2023-05-14T20:46:40;2.97;;;2.67;;
41984;SDS011;28319;48.116;10.818;2023-05-14T20:51:43;3.40;;;2.30;;
41984;SDS011;28319;48.116;10.818;2023-05-14T20:56:45;3.13;;;2.83;;
41984;SDS011;28319;48.116;10.818;2023-05-14T21:01:47;3.00;;;2.57;;
41984;SDS011;28319;48.116;10.818;2023-05-14T21:06:51;3.80;;;2.97;;
41984;SDS011;28319;48.116;10.818;2023-05-14T21:11:53;2.97;;;2.77;;
41984;SDS011;28319;48.116;10.818;2023-05-14T21:16:55;2.70;;;2.30;;
41984;SDS011;28319;48.116;10.818;2023-05-14T21:21:59;2.20;;;2.10;;
41984;SDS011;28319;48.116;10.818;2023-05-14T21:27:01;5.00;;;2.20;;
41984;SDS011;28319;48.116;10.818;2023-05-14T21:32:03;2.80;;;2.60;;
41984;SDS011;28319;48.116;10.818;2023-05-14T21:37:07;3.20;;;2.00;;
41984;SDS011;28319;48.116;10.818;2023-05-14T21:42:09;4.07;;;2.97;;
41984;SDS011;28319;48.116;10.818;2023-05-14T21:47:11;2.60;;;2.40;;
41984;SDS011;28319;48.116;10.818;2023-05-14T21:52:14;2.50;;;2.30;;
41984;SDS011;28319;48.116;10.818;2023-05-14T21:57:16;2.53;;;2.33;;
41984;SDS011;28319;48.116;10.818;2023-05-14T22:02:18;2.30;;;2.20;;
41984;SDS011;28319;48.116;10.818;2023-05-14T22:07:22;3.50;;;3.20;;
41984;SDS011;28319;48.116;10.818;2023-05-14T22:12:24;2.40;;;2.20;;
41984;SDS011;28319;48.116;10.818;2023-05-14T22:17:26;3.47;;;2.63;;
41984;SDS011;28319;48.116;10.818;2023-05-14T22:22:29;2.00;;;1.90;;
41984;SDS011;28319;48.116;10.818;2023-05-14T22:27:32;2.43;;;2.23;;
41984;SDS011;28319;48.116;10.818;2023-05-14T22:32:33;3.33;;;2.80;;
41984;SDS011;28319;48.116;10.818;2023-05-14T22:37:37;2.00;;;1.90;;
41984;SDS011;28319;48.116;10.818;2023-05-14T22:42:39;1.83;;;1.73;;
41984;SDS011;28319;48.116;10.818;2023-05-14T22:47:41;2.10;;;2.00;;
41984;SDS011;28319;48.116;10.818;2023-05-14T22:52:45;2.57;;;2.37;;
41984;SDS011;28319;48.116;10.818;2023-05-14T22:57:46;2.57;;;2.37;;
41984;SDS011;28319;48.116;10.818;2023-05-14T23:02:49;2.20;;;2.10;;
41984;SDS011;28319;48.116;10.818;2023-05-14T23:07:52;2.30;;;2.20;;
41984;SDS011;28319;48.116;10.818;2023-05-14T23:12:54;2.20;;;2.10;;
41984;SDS011;28319;48.116;10.818;2023-05-14T23:17:56;2.70;;;2.50;;
41984;SDS011;28319;48.116;10.818;2023-05-14T23:23:00;2.73;;;2.53;;
41984;SDS011;28319;48.116;10.818;2023-05-14T23:28:02;2.77;;;2.57;;
41984;SDS011;28319;48.116;10.818;2023-05-14T23:33:04;3.63;;;2.70;;
41984;SDS011;28319;48.116;10.818;2023-05-14T23:38:07;2.40;;;2.20;;
41984;SDS011;28319;48.116;10.818;2023-05-14T23:43:09;3.17;;;2.97;;
41984;SDS011;28319;48.116;10.818;2023-05-14T23:48:11;2.17;;;2.07;;
41984;SDS011;28319;48.116;10.818;2023-05-14T23:53:15;2.73;;;2.53;;
41984;SDS011;28319;48.116;10.818;2023-05-14T23:58:17;3.03;;;2.83;;
